Strona główna
METAR-TAF:

METAR-TAF

Lotnisko :

Benson, Anglia

Szerokość geograficzna: 51-37N, Długość geograficzna: 001-05W, wysokość: 63 m

Aktualna obserwacja pogody

Raport powstał 13 minut temu, godzina 12:20 UTC
Wiatr 6 kt od południe
Temperatura 25°C
Wilgotność 41%
Ciśnienie 1013 hPa
Widzialność 10 km lub więcej
Mało chmury na wysokości 4700 ft
Przerywane chmury na wysokości 25000 ft

METAR: EGUB 171220Z 17006KT 9999 FEW047 BKN250 25/11 Q1013 NOSIG RMK BLU BLU

czas: 13:33 (12:33 UTC)

Prognoza

Raport powstał 2 godziny i 8 minut temu, godzina 10:25 UTC
Prognoza ważna od 17 godzina 12 UTC do 18 godzina 06 UTC
Wiatr 7 kt od południowo-południowy zachód
Widzialność 10 km lub więcej
Mało chmury na wysokości 4000 ft
Stopniowe zmiany
od 18 godzina 01 UTC do 18 godzina 03 UTC
Przerywane chmury na wysokości 1500 ft
Przejściowo
od 18 godzina 02 UTC do 18 godzina 06 UTC
Widzialność: 4000 m
Przerywane chmury na wysokości 800 ft
deszcz, mżawka

TAF: EGUB 171025Z 1712/1806 21007KT 9999 FEW040 BECMG 1801/1803 BKN015 TEMPO 1802/1806 4000 RADZ BKN008

Obserwacja i prognoza pogody dla ponad 4000 lotnisk (raport METAR i TAF).

Dostępne stacje oznaczono żółtymi i czerwonymi punktami na mapie.

Najedź kursorem aby zobaczyć nazwę stacji.

Kliknij aby zobaczyć obserwacje i prognozy pogody.

Aby zmienić mapę: kliknij na zielony przycisk z czarnym krzyżykiem, aby powiększyć; na zielony przycisk z myślnikiem, aby pomniejszyć; na zielone strzałki, aby przejść do map sąsiednich.


METAR-TAF: